createdAt,value
2018-05-09T00:00:11.436Z,68.9
2018-05-09T00:01:01.696Z,68.9
2018-05-09T00:01:51.757Z,68.8
2018-05-09T00:02:42.377Z,68.8
2018-05-09T00:03:32.491Z,68.9
2018-05-09T00:04:22.239Z,68.8
2018-05-09T00:05:12.546Z,68.8
2018-05-09T00:06:02.633Z,68.8
2018-05-09T00:06:52.661Z,68.8
2018-05-09T00:07:42.454Z,68.8
2018-05-09T00:08:32.818Z,68.8
2018-05-09T00:09:22.043Z,68.8
2018-05-09T00:10:12.934Z,68.8
2018-05-09T00:11:02.740Z,68.8
2018-05-09T00:11:53.178Z,68.8
2018-05-09T00:12:42.837Z,68.8
2018-05-09T00:13:33.185Z,68.8
2018-05-09T00:14:23.255Z,68.8
2018-05-09T00:15:12.813Z,68.8
2018-05-09T00:16:03.093Z,68.7
2018-05-09T00:16:53.177Z,68.7
2018-05-09T00:17:43.515Z,68.7
2018-05-09T00:18:33.307Z,68.7
2018-05-09T00:19:23.082Z,68.7
2018-05-09T00:20:13.442Z,68.6
2018-05-09T00:21:03.769Z,68.6
2018-05-09T00:21:53.554Z,68.6
2018-05-09T00:22:43.931Z,68.7
2018-05-09T00:23:34.009Z,68.6
2018-05-09T00:24:23.770Z,68.6
2018-05-09T00:25:13.912Z,68.6
2018-05-09T00:26:03.328Z,68.6
2018-05-09T00:26:53.963Z,68.6
2018-05-09T00:27:43.452Z,68.6
2018-05-09T00:28:34.085Z,68.6
2018-05-09T00:29:23.614Z,68.6
2018-05-09T00:30:14.225Z,68.6
2018-05-09T00:31:04.273Z,68.6
2018-05-09T00:31:54.057Z,68.6
2018-05-09T00:32:44.173Z,68.6
2018-05-09T00:33:34.472Z,68.5
2018-05-09T00:34:24.766Z,68.5
2018-05-09T00:35:14.861Z,68.5
2018-05-09T00:36:04.645Z,68.5
2018-05-09T00:36:54.708Z,68.5
2018-05-09T00:37:44.505Z,68.5
2018-05-09T00:38:34.320Z,68.5
2018-05-09T00:39:24.896Z,68.5
2018-05-09T00:40:15.249Z,68.4
2018-05-09T00:41:05.055Z,68.4
2018-05-09T00:41:55.101Z,68.4
2018-05-09T00:42:45.169Z,68.4
2018-05-09T00:43:35.248Z,68.4
2018-05-09T00:44:25.626Z,68.4
2018-05-09T00:45:15.084Z,68.4
2018-05-09T00:46:05.791Z,68.4
2018-05-09T00:46:55.490Z,68.4
2018-05-09T00:47:45.843Z,68.4
2018-05-09T00:48:35.898Z,68.4
2018-05-09T00:49:25.987Z,68.4
2018-05-09T00:50:16.400Z,68.4
2018-05-09T00:51:05.536Z,68.4
2018-05-09T00:51:55.604Z,68.3
2018-05-09T00:52:46.339Z,68.3
2018-05-09T00:53:36.276Z,68.3
2018-05-09T00:54:26.069Z,68.3
2018-05-09T00:55:16.133Z,68.3
2018-05-09T00:56:06.479Z,68.3
2018-05-09T00:56:56.583Z,68.3
2018-05-09T00:57:46.395Z,68.3
2018-05-09T00:58:36.144Z,68.3
2018-05-09T00:59:26.185Z,68.3
2018-05-09T01:00:16.805Z,68.3
2018-05-09T01:01:06.561Z,68.3
2018-05-09T01:01:56.925Z,68.3
2018-05-09T01:02:46.706Z,68.3
2018-05-09T01:03:36.790Z,68.3
2018-05-09T01:04:26.819Z,68.3
2018-05-09T01:05:16.887Z,68.2
2018-05-09T01:06:07.237Z,68.2
2018-05-09T01:06:57.292Z,68.2
2018-05-09T01:07:46.816Z,68.2
2018-05-09T01:08:36.866Z,68.2
2018-05-09T01:09:27.519Z,68.2
2018-05-09T01:10:17.250Z,68.1
2018-05-09T01:11:07.614Z,68.1
2018-05-09T01:11:57.397Z,68.1
2018-05-09T01:12:47.181Z,68.1
2018-05-09T01:13:37.525Z,68.1
2018-05-09T01:14:27.602Z,68.1
2018-05-09T01:15:17.394Z,68.1
2018-05-09T01:16:08.006Z,68.1
2018-05-09T01:16:57.774Z,68.1
2018-05-09T01:17:48.149Z,68.1
2018-05-09T01:18:37.926Z,68.1
2018-05-09T01:19:28.009Z,68.1
2018-05-09T01:20:17.798Z,68.1
2018-05-09T01:21:08.395Z,68.1
2018-05-09T01:21:58.193Z,68.1
2018-05-09T01:22:47.955Z,68.1
2018-05-09T01:23:38.578Z,68
2018-05-09T01:24:28.433Z,68
2018-05-09T01:25:18.417Z,68
2018-05-09T01:26:08.290Z,68
2018-05-09T01:26:58.854Z,68
2018-05-09T01:27:48.637Z,68
2018-05-09T01:28:38.940Z,67.9
2018-05-09T01:29:28.227Z,67.9
2018-05-09T01:30:19.079Z,67.9
2018-05-09T01:31:08.860Z,67.9
2018-05-09T01:31:59.005Z,67.9
2018-05-09T01:32:49.285Z,67.9
2018-05-09T01:33:39.355Z,67.9
2018-05-09T01:34:29.481Z,67.9
2018-05-09T01:35:19.237Z,67.9
2018-05-09T01:36:08.970Z,67.9
2018-05-09T01:36:59.622Z,67.9
2018-05-09T01:37:49.409Z,67.9
2018-05-09T01:38:39.463Z,67.9
2018-05-09T01:39:29.566Z,67.9
2018-05-09T01:40:19.870Z,67.8
2018-05-09T01:41:09.095Z,67.8
2018-05-09T01:41:59.785Z,67.8
2018-05-09T01:42:49.785Z,67.8
2018-05-09T01:43:40.113Z,67.8
2018-05-09T01:44:29.348Z,67.8
2018-05-09T01:45:19.701Z,67.8
2018-05-09T01:46:10.054Z,67.8
2018-05-09T01:47:00.374Z,67.8
2018-05-09T01:47:50.459Z,67.8
2018-05-09T01:48:40.271Z,67.8
2018-05-09T01:49:30.014Z,67.8
2018-05-09T01:50:19.526Z,67.8
2018-05-09T01:51:09.852Z,67.8
2018-05-09T01:52:00.493Z,67.8
2018-05-09T01:52:50.603Z,67.7
2018-05-09T01:53:40.656Z,67.8
2018-05-09T01:54:30.954Z,67.8
2018-05-09T01:55:20.543Z,67.7
2018-05-09T01:56:11.086Z,67.7
2018-05-09T01:57:00.876Z,67.7
2018-05-09T01:57:50.752Z,67.7
2018-05-09T01:58:40.664Z,67.7
2018-05-09T01:59:31.092Z,67.7
2018-05-09T02:00:21.377Z,67.7
2018-05-09T02:01:11.447Z,67.6
2018-05-09T02:02:01.556Z,67.6
2018-05-09T02:02:51.591Z,67.6
2018-05-09T02:03:41.639Z,67.6
2018-05-09T02:04:31.419Z,67.6
2018-05-09T02:05:21.219Z,67.6
2018-05-09T02:06:12.983Z,67.6
2018-05-09T02:07:01.939Z,67.6
2018-05-09T02:07:51.958Z,67.6
2018-05-09T02:08:41.762Z,67.6
2018-05-09T02:09:31.808Z,67.6
2018-05-09T02:10:22.260Z,67.6
2018-05-09T02:11:12.222Z,67.6
2018-05-09T02:12:02.000Z,67.6
2018-05-09T02:12:52.367Z,67.5
2018-05-09T02:13:42.163Z,67.5
2018-05-09T02:14:31.923Z,67.5
2018-05-09T02:15:22.279Z,67.5
2018-05-09T02:16:12.381Z,67.5
2018-05-09T02:17:02.693Z,67.5
2018-05-09T02:17:52.490Z,67.5
2018-05-09T02:18:42.523Z,67.4
2018-05-09T02:19:32.849Z,67.4
2018-05-09T02:20:22.390Z,67.4
2018-05-09T02:21:12.990Z,67.4
2018-05-09T02:22:03.076Z,67.4
2018-05-09T02:22:52.815Z,67.4
2018-05-09T02:23:42.924Z,67.4
2018-05-09T02:24:33.243Z,67.4
2018-05-09T02:25:23.073Z,67.4
2018-05-09T02:26:13.382Z,67.4
2018-05-09T02:27:03.177Z,67.4
2018-05-09T02:27:53.521Z,67.4
2018-05-09T02:28:43.565Z,67.4
2018-05-09T02:29:33.081Z,67.3
2018-05-09T02:30:23.133Z,67.3
2018-05-09T02:31:14.102Z,67.3
2018-05-09T02:32:03.291Z,67.3
2018-05-09T02:32:53.347Z,67.3
2018-05-09T02:33:43.426Z,67.3
2018-05-09T04:37:20.291Z,65.6
2018-05-09T04:38:10.371Z,65.6
2018-05-09T04:38:59.809Z,65.5
2018-05-09T04:39:50.444Z,65.5
2018-05-09T04:40:40.512Z,65.5
2018-05-09T04:41:30.237Z,65.5
2018-05-09T04:42:20.343Z,65.5
2018-05-09T04:43:10.652Z,65.5
2018-05-09T04:44:00.149Z,65.4
2018-05-09T04:44:50.534Z,65.4
2018-05-09T04:45:40.627Z,65.4
2018-05-09T04:46:30.968Z,65.4
2018-05-09T04:47:21.041Z,65.4
2018-05-09T04:48:11.010Z,65.4
2018-05-09T04:49:01.080Z,65.4
2018-05-09T04:49:51.155Z,65.4
2018-05-09T04:50:41.200Z,65.4
2018-05-09T04:51:31.292Z,65.4
2018-05-09T04:52:21.339Z,65.4
2018-05-09T04:53:11.121Z,65.3
2018-05-09T04:54:01.448Z,65.3
2018-05-09T04:54:50.947Z,65.3
2018-05-09T04:55:43.253Z,65.3
2018-05-09T04:56:31.383Z,65.3
2018-05-09T04:57:21.140Z,65.3
2018-05-09T04:58:11.496Z,65.3
2018-05-09T04:59:01.295Z,65.3
2018-05-09T04:59:51.886Z,65.2
2018-05-09T05:00:41.982Z,65.2
2018-05-09T05:01:32.027Z,65.2
2018-05-09T05:02:21.814Z,65.2
2018-05-09T05:03:11.855Z,65.2
2018-05-09T05:04:02.217Z,65.2
2018-05-09T05:04:52.271Z,65.1
2018-05-09T05:05:42.077Z,65.1
2018-05-09T05:06:32.377Z,65.1
2018-05-09T05:07:22.182Z,65.1
2018-05-09T05:08:12.533Z,65.1
2018-05-09T05:09:02.584Z,65.1
2018-05-09T05:09:52.599Z,65.1
2018-05-09T05:10:42.389Z,65.1
2018-05-09T05:11:32.463Z,65.1
2018-05-09T05:12:21.746Z,65.1
2018-05-09T05:13:12.855Z,65.1
2018-05-09T05:14:02.678Z,65.1
2018-05-09T05:14:52.704Z,65
2018-05-09T05:15:43.478Z,65
2018-05-09T05:16:33.098Z,65
2018-05-09T05:17:22.692Z,65
2018-05-09T05:18:12.707Z,65
2018-05-09T05:19:02.756Z,65
2018-05-09T05:19:53.449Z,64.9
2018-05-09T05:20:43.141Z,64.9
2018-05-09T05:21:33.191Z,64.9
2018-05-09T05:22:22.973Z,64.9
2018-05-09T05:23:13.344Z,64.9
2018-05-09T05:24:03.134Z,64.9
2018-05-09T05:24:53.726Z,64.9
2018-05-09T05:25:43.842Z,64.9
2018-05-09T05:26:33.413Z,64.9
2018-05-09T05:27:23.671Z,64.8
2018-05-09T05:28:13.723Z,64.8
2018-05-09T05:29:03.800Z,64.8
2018-05-09T05:29:54.191Z,64.8
2018-05-09T05:30:44.185Z,64.8
2018-05-09T05:31:34.276Z,64.8
2018-05-09T05:32:24.025Z,64.8
2018-05-09T05:33:14.112Z,64.8
2018-05-09T05:34:04.112Z,64.8
2018-05-09T05:34:53.642Z,64.8
2018-05-09T05:35:44.519Z,64.8
2018-05-09T05:36:34.382Z,64.8
2018-05-09T05:37:24.649Z,64.8
2018-05-09T05:38:14.253Z,64.8
2018-05-09T05:39:04.787Z,64.7
2018-05-09T05:39:54.849Z,64.8
2018-05-09T05:40:44.909Z,64.7
2018-05-09T05:41:34.479Z,64.7
2018-05-09T05:42:24.473Z,64.7
2018-05-09T05:43:14.810Z,64.7
2018-05-09T05:44:05.185Z,64.7
2018-05-09T05:44:55.102Z,64.6
2018-05-09T05:45:45.040Z,64.6
2018-05-09T05:46:35.059Z,64.7
2018-05-09T05:47:25.137Z,64.6
2018-05-09T05:48:15.510Z,64.6
2018-05-09T05:49:04.765Z,64.6
2018-05-09T05:49:55.598Z,64.6
2018-05-09T05:50:45.683Z,64.6
2018-05-09T05:51:35.759Z,64.6
2018-05-09T05:52:25.242Z,64.6
2018-05-09T05:53:15.017Z,64.6
2018-05-09T05:54:05.732Z,64.6
2018-05-09T05:54:55.718Z,64.5
2018-05-09T05:55:46.041Z,64.5
2018-05-09T05:56:35.793Z,64.5
2018-05-09T05:57:25.863Z,64.5
2018-05-09T05:58:16.237Z,64.5
2018-05-09T05:59:06.272Z,64.5
2018-05-09T05:59:55.829Z,64.4
2018-05-09T06:00:46.412Z,64.4
2018-05-09T06:01:36.263Z,64.4
2018-05-09T06:02:26.252Z,64.4
2018-05-09T06:03:16.136Z,64.4
2018-05-09T06:04:06.377Z,64.4
2018-05-09T06:04:56.435Z,64.4
2018-05-09T06:05:46.541Z,64.4
2018-05-09T06:06:36.599Z,64.4
2018-05-09T06:07:26.428Z,64.4
2018-05-09T06:08:16.987Z,64.4
2018-05-09T06:09:06.272Z,64.4
2018-05-09T06:09:56.913Z,64.4
2018-05-09T06:10:46.608Z,64.4
2018-05-09T06:11:36.680Z,64.4
2018-05-09T06:12:27.316Z,64.3
2018-05-09T06:13:17.076Z,64.3
2018-05-09T06:14:07.437Z,64.3
2018-05-09T06:14:56.616Z,64.3
2018-05-09T06:15:46.970Z,64.3
2018-05-09T06:16:37.407Z,64.3
2018-05-09T06:17:27.429Z,64.3
2018-05-09T06:18:17.724Z,64.3
2018-05-09T06:19:07.531Z,64.3
2018-05-09T06:19:57.556Z,64.3
2018-05-09T06:20:47.672Z,64.3
2018-05-09T06:21:37.719Z,64.3
2018-05-09T06:22:27.504Z,64.3
2018-05-09T06:23:17.606Z,64.2
2018-05-09T06:24:08.956Z,64.2
2018-05-09T06:24:58.013Z,64.2
2018-05-09T06:25:48.305Z,64.2
2018-05-09T06:26:38.100Z,64.2
2018-05-09T06:27:28.458Z,64.2
2018-05-09T06:28:18.241Z,64.2
2018-05-09T06:29:08.318Z,64.2
2018-05-09T06:29:58.373Z,64.2
2018-05-09T06:30:48.732Z,64.1
2018-05-09T06:31:38.190Z,64.1
2018-05-09T06:32:28.543Z,64.1
2018-05-09T06:33:18.632Z,64.1
2018-05-09T06:34:08.589Z,64.1
2018-05-09T06:34:58.745Z,64.1
2018-05-09T06:35:48.532Z,64.1
2018-05-09T06:36:38.595Z,64.1
2018-05-09T06:37:29.212Z,64.1
2018-05-09T06:38:19.262Z,64.1
2018-05-09T06:39:08.553Z,64.1
2018-05-09T06:39:59.369Z,64.1
2018-05-09T06:40:49.260Z,64
2018-05-09T06:41:39.681Z,64.1
2018-05-09T06:42:29.275Z,64
2018-05-09T06:43:19.373Z,64
2018-05-09T06:44:08.595Z,64
2018-05-09T06:44:59.517Z,64
2018-05-09T06:45:49.272Z,64
2018-05-09T06:46:39.678Z,64
2018-05-09T06:47:29.680Z,64
2018-05-09T06:48:20.063Z,63.9
2018-05-09T06:49:09.810Z,64
2018-05-09T06:50:00.576Z,63.9
2018-05-09T06:50:50.240Z,63.9
2018-05-09T06:51:39.743Z,63.9
2018-05-09T06:52:29.803Z,63.9
2018-05-09T06:53:19.611Z,63.9
2018-05-09T06:54:09.179Z,63.9
2018-05-09T06:55:00.297Z,63.9
2018-05-09T06:55:50.047Z,63.9
2018-05-09T06:56:40.109Z,63.9
2018-05-09T06:57:30.184Z,63.9
2018-05-09T06:58:20.277Z,63.9
2018-05-09T06:59:11.111Z,63.9
2018-05-09T07:00:00.962Z,63.8
2018-05-09T07:00:50.509Z,63.8
2018-05-09T07:01:40.834Z,63.8
2018-05-09T07:02:31.119Z,63.8
2018-05-09T07:03:21.190Z,63.8
2018-05-09T07:04:11.284Z,63.8
2018-05-09T07:05:01.043Z,63.8
2018-05-09T07:05:51.392Z,63.8
2018-05-09T07:06:44.636Z,63.8
2018-05-09T07:07:30.959Z,63.8
2018-05-09T07:08:21.298Z,63.8
2018-05-09T07:09:11.335Z,63.8
2018-05-09T07:10:01.114Z,63.8
2018-05-09T07:10:51.808Z,63.8
2018-05-09T07:11:41.002Z,63.8
2018-05-09T07:12:32.252Z,63.8
2018-05-09T07:13:21.678Z,63.7
2018-05-09T07:14:11.841Z,63.7
2018-05-09T07:15:02.049Z,63.7
2018-05-09T07:15:51.573Z,63.7
2018-05-09T07:16:41.905Z,63.7
2018-05-09T07:17:31.979Z,63.7
2018-05-09T07:18:22.043Z,63.6
2018-05-09T07:19:12.449Z,63.6
2018-05-09T07:20:01.882Z,63.7
2018-05-09T07:20:52.548Z,63.6
2018-05-09T07:21:42.013Z,63.6
2018-05-09T07:22:32.384Z,63.6
2018-05-09T07:23:22.700Z,63.6
2018-05-09T07:24:12.523Z,63.6
2018-05-09T07:25:02.562Z,63.6
2018-05-09T07:25:52.347Z,63.6
2018-05-09T07:26:42.960Z,63.6
2018-05-09T07:27:32.748Z,63.6
2018-05-09T07:28:22.828Z,63.6
2018-05-09T07:29:12.606Z,63.6
2018-05-09T07:30:02.956Z,63.6
2018-05-09T07:30:53.292Z,63.6
2018-05-09T07:31:43.317Z,63.6
2018-05-09T07:32:33.403Z,63.5
2018-05-09T07:33:23.490Z,63.5
2018-05-09T07:34:13.555Z,63.6
2018-05-09T07:35:03.605Z,63.5
2018-05-09T07:35:53.008Z,63.5
2018-05-09T07:36:43.488Z,63.5
2018-05-09T07:37:33.791Z,63.5
2018-05-09T07:38:23.016Z,63.5
2018-05-09T07:39:12.876Z,63.5
2018-05-09T07:40:03.997Z,63.4
2018-05-09T07:40:54.136Z,63.4
2018-05-09T07:41:43.360Z,63.4
2018-05-09T07:42:33.889Z,63.4
2018-05-09T07:43:24.232Z,63.4
2018-05-09T07:44:13.847Z,63.4
2018-05-09T07:45:04.115Z,63.4
2018-05-09T07:45:54.160Z,63.4
2018-05-09T07:46:44.496Z,63.4
2018-05-09T07:47:34.856Z,63.4
2018-05-09T07:48:24.090Z,63.4
2018-05-09T07:49:13.851Z,63.4
2018-05-09T07:50:04.189Z,63.4
2018-05-09T07:50:54.611Z,63.4
2018-05-09T07:51:44.308Z,63.4
2018-05-09T07:52:34.955Z,63.3
2018-05-09T07:53:24.534Z,63.3
2018-05-09T07:54:14.611Z,63.3
2018-05-09T07:55:04.408Z,63.3
2018-05-09T07:55:55.163Z,63.3
2018-05-09T07:56:45.190Z,63.3
2018-05-09T07:57:34.371Z,63.3
2018-05-09T07:58:25.412Z,63.3
2018-05-09T07:59:15.457Z,63.3
2018-05-09T08:00:05.551Z,63.3
2018-05-09T08:00:54.997Z,63.3
2018-05-09T08:01:45.361Z,63.3
2018-05-09T08:02:35.451Z,63.3
2018-05-09T08:03:24.849Z,63.3
2018-05-09T08:04:15.342Z,63.3
2018-05-09T08:05:05.422Z,63.3
2018-05-09T08:05:55.349Z,63.3
2018-05-09T08:06:45.280Z,63.3
2018-05-09T08:07:35.817Z,63.3
2018-05-09T08:08:26.182Z,63.3
2018-05-09T08:09:16.205Z,63.4
2018-05-09T08:10:06.062Z,63.4
2018-05-09T08:10:56.087Z,63.4
2018-05-09T08:11:46.423Z,63.5
2018-05-09T08:12:35.447Z,63.6
2018-05-09T08:13:25.724Z,63.6
2018-05-09T08:14:15.584Z,63.7
2018-05-09T08:15:05.937Z,63.8
2018-05-09T08:15:55.984Z,63.9
2018-05-09T08:16:46.168Z,63.9
2018-05-09T08:17:36.620Z,63.9
2018-05-09T08:18:26.182Z,64
2018-05-09T08:19:17.030Z,64
2018-05-09T08:20:06.311Z,64.1
2018-05-09T08:20:57.122Z,64.1
2018-05-09T08:21:47.200Z,64.3
2018-05-09T08:22:36.971Z,64.4
2018-05-09T08:23:27.359Z,64.4
2018-05-09T08:24:17.389Z,64.5
2018-05-09T08:25:07.748Z,64.6
2018-05-09T08:25:57.505Z,64.6
2018-05-09T08:26:46.245Z,64.6
2018-05-09T08:27:37.158Z,64.7
2018-05-09T08:28:26.759Z,64.8
2018-05-09T08:29:17.768Z,64.8
2018-05-09T08:30:07.965Z,65
2018-05-09T08:30:57.119Z,65.1
2018-05-09T08:31:47.438Z,65.1
2018-05-09T08:32:38.091Z,65.2
2018-05-09T08:33:27.835Z,65.3
2018-05-09T08:34:17.913Z,65.3
2018-05-09T08:35:08.251Z,65.4
2018-05-09T08:35:58.302Z,65.5
2018-05-09T08:36:48.782Z,65.6
2018-05-09T08:37:38.202Z,65.6
2018-05-09T08:38:28.158Z,65.7
2018-05-09T08:39:18.289Z,65.8
2018-05-09T08:40:08.664Z,65.9
2018-05-09T08:40:58.716Z,65.9
2018-05-09T08:41:48.477Z,66.1
2018-05-09T08:42:38.578Z,66.1
2018-05-09T08:43:29.803Z,66.1
2018-05-09T08:44:18.366Z,66.3
2018-05-09T08:45:08.758Z,66.3
2018-05-09T08:45:57.950Z,66.4
2018-05-09T08:46:48.828Z,66.4
2018-05-09T08:47:38.895Z,66.5
2018-05-09T08:48:28.999Z,66.6
2018-05-09T08:49:19.896Z,66.6
2018-05-09T08:50:09.387Z,66.7
2018-05-09T08:50:59.438Z,66.8
2018-05-09T08:51:49.239Z,66.9
2018-05-09T08:52:39.570Z,66.9
2018-05-09T08:53:29.652Z,67
2018-05-09T08:54:19.453Z,67.1
2018-05-09T08:55:09.488Z,67.3
2018-05-09T08:55:59.557Z,67.4
2018-05-09T08:56:49.646Z,67.4
2018-05-09T08:57:39.429Z,67.5
2018-05-09T08:58:30.064Z,67.6
2018-05-09T08:59:19.822Z,67.6
2018-05-09T09:00:09.324Z,67.7
2018-05-09T09:00:59.975Z,67.8
2018-05-09T09:01:48.748Z,67.8
2018-05-09T09:02:39.796Z,67.9
2018-05-09T09:03:30.421Z,67.9
2018-05-09T09:04:20.620Z,68.1
2018-05-09T09:05:09.706Z,68.2
2018-05-09T09:06:00.621Z,68.3
2018-05-09T09:06:50.405Z,68.3
2018-05-09T09:07:40.755Z,68.4
2018-05-09T09:08:30.773Z,68.4
2018-05-09T09:09:20.080Z,68.6
2018-05-09T09:10:10.476Z,68.6
2018-05-09T09:11:00.517Z,68.8
2018-05-09T09:11:51.063Z,68.8
2018-05-09T09:12:40.833Z,68.9
2018-05-09T09:13:30.888Z,69
2018-05-09T09:14:21.032Z,69.1
2018-05-09T09:15:11.300Z,69.2
2018-05-09T09:16:00.848Z,69.3
2018-05-09T09:16:51.147Z,69.4
2018-05-09T09:17:41.205Z,69.4
2018-05-09T09:18:31.722Z,69.5
2018-05-09T09:19:21.080Z,69.6
2018-05-09T09:20:11.720Z,69.7
2018-05-09T09:21:01.719Z,69.8
2018-05-09T09:21:51.926Z,69.8
2018-05-09T09:22:41.924Z,69.9
2018-05-09T09:23:31.410Z,70
2018-05-09T09:24:20.918Z,70.1
2018-05-09T09:25:10.979Z,70.1
2018-05-09T09:26:01.862Z,70.3
2018-05-09T09:26:52.210Z,70.3
2018-05-09T09:27:41.730Z,70.4
2018-05-09T09:28:32.054Z,70.5
2018-05-09T09:29:22.286Z,70.5
2018-05-09T09:30:12.544Z,70.6
2018-05-09T09:31:02.303Z,70.7
2018-05-09T09:31:52.341Z,70.7
2018-05-09T09:32:42.413Z,70.9
2018-05-09T09:33:32.770Z,70.9
2018-05-09T09:34:22.554Z,71
2018-05-09T09:35:12.045Z,71.1
2018-05-09T09:36:02.417Z,71.1
2018-05-09T09:36:52.735Z,71.2
2018-05-09T09:37:43.126Z,71.3
2018-05-09T09:38:32.869Z,71.3
2018-05-09T09:39:23.271Z,71.4
2018-05-09T09:40:13.309Z,71.4
2018-05-09T09:41:03.124Z,71.5
2018-05-09T09:41:53.490Z,71.6
2018-05-09T09:42:43.162Z,71.7
2018-05-09T09:43:33.505Z,71.7
2018-05-09T09:44:23.305Z,71.8
2018-05-09T09:45:13.330Z,71.9
2018-05-09T09:46:03.158Z,71.9
2018-05-09T09:46:53.755Z,72
2018-05-09T09:47:43.833Z,72.1
2018-05-09T09:48:33.627Z,72.2
2018-05-09T09:49:23.951Z,72.3
2018-05-09T09:50:14.005Z,72.3
2018-05-09T09:51:03.812Z,72.4
2018-05-09T09:51:53.588Z,72.5
2018-05-09T09:52:43.907Z,72.5
2018-05-09T09:53:34.304Z,72.6
2018-05-09T09:54:23.495Z,72.7
2018-05-09T09:55:14.152Z,72.8
2018-05-09T09:56:03.656Z,72.9
2018-05-09T09:56:54.527Z,72.9
2018-05-09T09:57:44.303Z,73.1
2018-05-09T09:58:34.450Z,73.1
2018-05-09T09:59:24.827Z,73.2
2018-05-09T10:00:14.227Z,73.3
2018-05-09T10:01:04.870Z,73.3
2018-05-09T10:01:54.899Z,73.4
2018-05-09T10:02:44.690Z,73.4
2018-05-09T10:03:34.794Z,73.5
2018-05-09T10:04:25.086Z,73.6
2018-05-09T10:05:15.196Z,73.6
2018-05-09T10:06:04.969Z,73.8
2018-05-09T10:06:55.285Z,73.8
2018-05-09T10:07:45.363Z,73.9
2018-05-09T10:08:35.163Z,73.9
2018-05-09T10:09:25.211Z,74
2018-05-09T10:10:15.272Z,74.1
2018-05-09T10:11:04.758Z,74.1
2018-05-09T10:11:55.118Z,74.2
2018-05-09T10:12:45.778Z,74.3
2018-05-09T10:13:35.833Z,74.4
2018-05-09T10:14:25.891Z,74.4
2018-05-09T10:15:15.379Z,74.5
2018-05-09T10:16:06.690Z,74.5
2018-05-09T10:16:55.778Z,74.6
2018-05-09T10:17:45.607Z,74.7
2018-05-09T10:18:36.193Z,74.8
2018-05-09T10:19:25.979Z,74.8
2018-05-09T10:20:16.334Z,74.9
2018-05-09T10:21:05.638Z,74.9
2018-05-09T10:21:56.476Z,75
2018-05-09T10:22:46.546Z,75.1
2018-05-09T10:23:36.283Z,75.3
2018-05-09T10:24:26.368Z,75.3
2018-05-09T10:25:16.237Z,75.3
2018-05-09T10:26:06.859Z,75.3
2018-05-09T10:26:56.342Z,75.3
2018-05-09T10:27:46.648Z,75.4
2018-05-09T10:28:36.691Z,75.6
2018-05-09T10:29:27.048Z,75.7
2018-05-09T10:30:16.548Z,75.7
2018-05-09T10:31:06.985Z,75.8
2018-05-09T10:31:57.372Z,75.9
2018-05-09T10:32:47.033Z,75.9
2018-05-09T10:33:37.126Z,76
2018-05-09T10:34:27.500Z,76.1
2018-05-09T10:35:16.983Z,76.1
2018-05-09T10:36:07.303Z,76.2
2018-05-09T10:36:56.602Z,76.3
2018-05-09T10:37:47.402Z,76.3
2018-05-09T10:38:37.745Z,76.3
2018-05-09T10:39:27.335Z,76.4
2018-05-09T10:40:17.879Z,76.4
2018-05-09T10:41:07.935Z,76.6
2018-05-09T10:41:58.033Z,76.6
2018-05-09T10:42:48.080Z,76.6
2018-05-09T10:43:38.127Z,76.7
2018-05-09T10:44:28.198Z,76.8
2018-05-09T10:45:18.323Z,76.8
2018-05-09T10:46:08.341Z,76.9
2018-05-09T10:46:58.113Z,76.9
2018-05-09T10:47:48.168Z,77
2018-05-09T10:48:38.541Z,77
2018-05-09T10:49:28.306Z,77.1
2018-05-09T10:50:18.655Z,77.1
2018-05-09T10:51:08.154Z,77.2
2018-05-09T10:51:58.478Z,77.3
2018-05-09T10:52:48.557Z,77.3
2018-05-09T10:53:38.934Z,77.4
2018-05-09T10:54:28.734Z,77.4
2018-05-09T10:55:19.004Z,77.5
2018-05-09T10:56:09.073Z,77.6
2018-05-09T10:56:58.880Z,77.7
2018-05-09T10:57:48.651Z,77.7
2018-05-09T10:58:39.007Z,77.8
2018-05-09T10:59:29.416Z,77.8
2018-05-09T11:00:19.123Z,77.9
2018-05-09T11:01:08.654Z,77.9
2018-05-09T11:01:59.279Z,77.9
2018-05-09T11:02:48.764Z,78.1
2018-05-09T11:03:39.419Z,78.1
2018-05-09T11:04:29.478Z,78.3
2018-05-09T11:05:19.543Z,78.3
2018-05-09T11:06:09.332Z,78.3
2018-05-09T11:06:59.398Z,78.3
2018-05-09T11:07:49.186Z,78.4
2018-05-09T11:08:39.510Z,78.4
2018-05-09T11:09:29.872Z,78.5
2018-05-09T11:10:19.940Z,78.6
2018-05-09T11:11:09.708Z,78.6
2018-05-09T11:12:00.333Z,78.7
2018-05-09T11:12:50.381Z,78.7
2018-05-09T11:13:40.455Z,78.8
2018-05-09T11:14:30.498Z,78.9
2018-05-09T11:15:20.576Z,78.9
2018-05-09T11:16:10.056Z,78.9
2018-05-09T11:17:00.403Z,79
2018-05-09T11:17:50.196Z,79
2018-05-09T11:18:40.266Z,79.1
2018-05-09T11:19:30.639Z,79.1
2018-05-09T11:20:20.405Z,79.1
2018-05-09T11:21:11.011Z,79.2
2018-05-09T11:22:00.860Z,79.2
2018-05-09T11:22:51.164Z,79.3
2018-05-09T11:23:41.007Z,79.3
2018-05-09T11:24:32.422Z,79.4
2018-05-09T11:25:20.775Z,79.4
2018-05-09T11:26:11.133Z,79.4
2018-05-09T11:27:01.199Z,79.5
2018-05-09T11:27:50.977Z,79.5
2018-05-09T11:28:41.117Z,79.6
2018-05-09T11:29:31.381Z,79.6
2018-05-09T11:30:21.170Z,79.7
2018-05-09T11:31:11.813Z,79.7
2018-05-09T11:32:01.382Z,79.8
2018-05-09T11:32:51.678Z,79.8
2018-05-09T11:33:41.725Z,79.9
2018-05-09T11:34:32.136Z,79.9
2018-05-09T11:35:22.111Z,79.9
2018-05-09T11:36:11.358Z,80
2018-05-09T11:37:01.969Z,80.1
2018-05-09T11:37:51.759Z,80.1
2018-05-09T11:38:42.363Z,80.1
2018-05-09T11:40:22.232Z,80.3
2018-05-09T11:41:12.291Z,80.3
2018-05-09T11:42:02.666Z,80.3
2018-05-09T11:42:52.427Z,80.4
2018-05-09T11:43:42.785Z,80.4
2018-05-09T11:44:32.866Z,80.4
2018-05-09T11:45:22.925Z,80.4
2018-05-09T11:46:12.995Z,80.5
2018-05-09T11:47:02.214Z,80.6
2018-05-09T11:47:52.782Z,80.6
2018-05-09T11:48:42.874Z,80.7
2018-05-09T11:49:32.104Z,80.7
2018-05-09T11:50:23.284Z,80.7
2018-05-09T11:51:13.091Z,80.7
2018-05-09T11:52:03.156Z,80.8
2018-05-09T11:52:53.006Z,80.8
2018-05-09T11:53:43.581Z,80.8
2018-05-09T11:54:33.319Z,80.8
2018-05-09T11:55:22.859Z,80.8
2018-05-09T11:56:13.180Z,80.9
2018-05-09T11:57:03.785Z,80.9
2018-05-09T11:57:53.611Z,80.9
2018-05-09T11:58:43.903Z,80.9
2018-05-09T11:59:33.981Z,80.9
2018-05-09T12:00:24.051Z,80.9
2018-05-09T12:01:14.126Z,81
2018-05-09T12:02:03.941Z,81
2018-05-09T12:02:53.707Z,81.1
2018-05-09T12:03:44.063Z,81.1
2018-05-09T12:04:34.089Z,81.1
2018-05-09T12:05:23.893Z,81.1
2018-05-09T12:06:14.345Z,81.1
2018-05-09T12:07:04.611Z,81.1
2018-05-09T12:07:54.113Z,81.1
2018-05-09T12:08:44.436Z,81.2
2018-05-09T12:09:34.230Z,81.2
2018-05-09T12:10:26.042Z,81.2
2018-05-09T12:11:14.931Z,81.3
2018-05-09T12:12:04.961Z,81.3
2018-05-09T12:12:54.487Z,81.3
2018-05-09T12:13:45.118Z,81.3
2018-05-09T12:14:34.611Z,81.3
2018-05-09T12:15:24.950Z,81.3
2018-05-09T12:16:14.440Z,81.4
2018-05-09T12:17:05.343Z,81.4
2018-05-09T12:17:55.410Z,81.4
2018-05-09T12:18:45.225Z,81.4
2018-05-09T12:19:34.699Z,81.4
2018-05-09T12:20:25.151Z,81.4
2018-05-09T12:21:14.875Z,81.4
2018-05-09T12:22:05.497Z,81.4
2018-05-09T12:22:55.625Z,81.4
2018-05-09T12:23:45.101Z,81.5
2018-05-09T12:24:36.717Z,81.5
2018-05-09T12:25:25.429Z,81.5
2018-05-09T12:26:16.087Z,81.5
2018-05-09T12:27:05.645Z,81.6
2018-05-09T12:27:55.916Z,81.6
2018-05-09T12:28:46.278Z,81.6
2018-05-09T12:29:36.335Z,81.6
2018-05-09T12:30:26.411Z,81.6
2018-05-09T12:31:16.173Z,81.6
2018-05-09T12:32:06.238Z,81.6
2018-05-09T12:32:56.606Z,81.6
2018-05-09T12:33:46.668Z,81.6
2018-05-09T12:34:36.709Z,81.6
2018-05-09T12:35:26.470Z,81.6
2018-05-09T12:36:16.359Z,81.6
2018-05-09T12:37:06.914Z,81.6
2018-05-09T12:37:56.943Z,81.6
2018-05-09T12:38:46.799Z,81.6
2018-05-09T12:39:36.841Z,81.6
2018-05-09T12:40:27.177Z,81.6
2018-05-09T12:41:16.976Z,81.6
2018-05-09T12:42:07.347Z,81.6
2018-05-09T12:42:56.821Z,81.6
2018-05-09T12:43:47.165Z,81.6
2018-05-09T12:44:37.249Z,81.6
2018-05-09T12:45:27.284Z,81.6
2018-05-09T12:46:17.316Z,81.6
2018-05-09T12:47:07.663Z,81.6
2018-05-09T12:47:57.737Z,81.6
2018-05-09T12:48:49.395Z,81.6
2018-05-09T12:49:37.034Z,81.6
2018-05-09T12:50:27.718Z,81.6
2018-05-09T12:51:17.159Z,81.6
2018-05-09T12:52:07.552Z,81.6
2018-05-09T12:52:57.275Z,81.6
2018-05-09T12:53:48.226Z,81.6
2018-05-09T12:54:38.761Z,81.6
2018-05-09T12:55:28.300Z,81.5
2018-05-09T12:56:18.390Z,81.5
2018-05-09T12:57:08.436Z,81.5
2018-05-09T12:57:58.523Z,81.5
2018-05-09T12:58:48.316Z,81.5
2018-05-09T12:59:38.619Z,81.5
2018-05-09T13:00:29.534Z,81.5
2018-05-09T13:01:18.205Z,81.5
2018-05-09T13:02:08.295Z,81.5
2018-05-09T13:02:58.372Z,81.5
2018-05-09T13:03:48.431Z,81.5
2018-05-09T13:04:39.079Z,81.5
2018-05-09T13:05:29.104Z,81.4
2018-05-09T13:06:19.204Z,81.4
2018-05-09T13:07:08.823Z,81.4
2018-05-09T13:07:58.257Z,81.4
2018-05-09T13:08:49.096Z,81.4
2018-05-09T13:09:39.172Z,81.4
2018-05-09T13:10:29.510Z,81.4
2018-05-09T13:11:19.382Z,81.4
2018-05-09T13:12:09.057Z,81.4